sensor_id;sensor_type;location;lat;lon;timestamp;P1;durP1;ratioP1;P2;durP2;ratioP2
15968;SDS011;8085;53.472;9.794;2023-03-01T00:00:12;7.27;;;4.73;;
15968;SDS011;8085;53.472;9.794;2023-03-01T00:02:39;8.37;;;4.20;;
15968;SDS011;8085;53.472;9.794;2023-03-01T00:05:07;6.53;;;3.37;;
15968;SDS011;8085;53.472;9.794;2023-03-01T00:07:35;6.63;;;3.70;;
15968;SDS011;8085;53.472;9.794;2023-03-01T00:10:02;7.77;;;3.17;;
15968;SDS011;8085;53.472;9.794;2023-03-01T00:12:30;5.10;;;2.90;;
15968;SDS011;8085;53.472;9.794;2023-03-01T00:14:57;5.30;;;2.63;;
15968;SDS011;8085;53.472;9.794;2023-03-01T00:17:24;4.57;;;3.27;;
15968;SDS011;8085;53.472;9.794;2023-03-01T00:19:51;4.00;;;2.90;;
15968;SDS011;8085;53.472;9.794;2023-03-01T00:22:18;4.93;;;2.77;;
15968;SDS011;8085;53.472;9.794;2023-03-01T00:24:46;4.20;;;2.50;;
15968;SDS011;8085;53.472;9.794;2023-03-01T00:27:13;5.97;;;2.87;;
15968;SDS011;8085;53.472;9.794;2023-03-01T00:29:40;4.57;;;2.60;;
15968;SDS011;8085;53.472;9.794;2023-03-01T00:32:07;5.43;;;3.07;;
15968;SDS011;8085;53.472;9.794;2023-03-01T00:34:34;4.53;;;2.70;;
15968;SDS011;8085;53.472;9.794;2023-03-01T00:37:00;4.80;;;3.07;;
15968;SDS011;8085;53.472;9.794;2023-03-01T00:39:30;4.93;;;2.73;;
15968;SDS011;8085;53.472;9.794;2023-03-01T00:41:59;5.90;;;3.10;;
15968;SDS011;8085;53.472;9.794;2023-03-01T00:44:25;6.23;;;3.00;;
15968;SDS011;8085;53.472;9.794;2023-03-01T00:46:53;3.87;;;2.80;;
15968;SDS011;8085;53.472;9.794;2023-03-01T00:49:20;5.53;;;2.90;;
15968;SDS011;8085;53.472;9.794;2023-03-01T00:51:49;5.40;;;2.60;;
15968;SDS011;8085;53.472;9.794;2023-03-01T00:54:16;4.27;;;2.70;;
15968;SDS011;8085;53.472;9.794;2023-03-01T00:56:42;4.07;;;2.00;;
15968;SDS011;8085;53.472;9.794;2023-03-01T00:59:11;3.30;;;1.83;;
15968;SDS011;8085;53.472;9.794;2023-03-01T01:01:37;6.47;;;1.93;;
15968;SDS011;8085;53.472;9.794;2023-03-01T01:04:05;3.13;;;1.80;;
15968;SDS011;8085;53.472;9.794;2023-03-01T01:06:35;3.07;;;1.60;;
15968;SDS011;8085;53.472;9.794;2023-03-01T01:09:03;2.47;;;1.40;;
15968;SDS011;8085;53.472;9.794;2023-03-01T01:11:32;4.40;;;1.67;;
15968;SDS011;8085;53.472;9.794;2023-03-01T01:14:00;2.47;;;1.50;;
15968;SDS011;8085;53.472;9.794;2023-03-01T01:16:28;2.30;;;1.10;;
15968;SDS011;8085;53.472;9.794;2023-03-01T01:18:56;2.90;;;1.57;;
15968;SDS011;8085;53.472;9.794;2023-03-01T01:21:23;2.97;;;1.70;;
15968;SDS011;8085;53.472;9.794;2023-03-01T01:23:52;5.20;;;1.60;;
15968;SDS011;8085;53.472;9.794;2023-03-01T01:26:20;4.07;;;2.00;;
15968;SDS011;8085;53.472;9.794;2023-03-01T01:28:48;2.47;;;1.67;;
15968;SDS011;8085;53.472;9.794;2023-03-01T01:31:16;3.53;;;1.70;;
15968;SDS011;8085;53.472;9.794;2023-03-01T01:33:45;2.73;;;1.70;;
15968;SDS011;8085;53.472;9.794;2023-03-01T01:36:12;4.47;;;1.77;;
15968;SDS011;8085;53.472;9.794;2023-03-01T01:38:39;3.70;;;1.87;;
15968;SDS011;8085;53.472;9.794;2023-03-01T01:41:07;3.73;;;1.67;;
15968;SDS011;8085;53.472;9.794;2023-03-01T01:43:37;3.17;;;1.60;;
15968;SDS011;8085;53.472;9.794;2023-03-01T01:46:06;3.23;;;1.63;;
15968;SDS011;8085;53.472;9.794;2023-03-01T01:48:41;5.77;;;1.70;;
15968;SDS011;8085;53.472;9.794;2023-03-01T01:51:13;2.43;;;1.83;;
15968;SDS011;8085;53.472;9.794;2023-03-01T01:53:44;2.70;;;1.50;;
15968;SDS011;8085;53.472;9.794;2023-03-01T01:56:15;3.40;;;1.90;;
15968;SDS011;8085;53.472;9.794;2023-03-01T01:58:43;4.60;;;1.77;;
15968;SDS011;8085;53.472;9.794;2023-03-01T02:01:12;3.70;;;1.83;;
15968;SDS011;8085;53.472;9.794;2023-03-01T02:03:39;4.13;;;1.87;;
15968;SDS011;8085;53.472;9.794;2023-03-01T02:06:13;3.13;;;1.80;;
15968;SDS011;8085;53.472;9.794;2023-03-01T02:08:45;3.37;;;1.90;;
15968;SDS011;8085;53.472;9.794;2023-03-01T02:11:15;2.53;;;1.80;;
15968;SDS011;8085;53.472;9.794;2023-03-01T02:13:44;5.10;;;1.60;;
15968;SDS011;8085;53.472;9.794;2023-03-01T02:16:13;4.30;;;1.80;;
15968;SDS011;8085;53.472;9.794;2023-03-01T02:18:41;3.00;;;1.90;;
15968;SDS011;8085;53.472;9.794;2023-03-01T02:21:13;2.73;;;1.77;;
15968;SDS011;8085;53.472;9.794;2023-03-01T02:23:51;3.07;;;1.47;;
15968;SDS011;8085;53.472;9.794;2023-03-01T02:26:23;3.83;;;1.60;;
15968;SDS011;8085;53.472;9.794;2023-03-01T02:28:58;1.97;;;1.53;;
15968;SDS011;8085;53.472;9.794;2023-03-01T02:31:25;2.50;;;1.60;;
15968;SDS011;8085;53.472;9.794;2023-03-01T02:34:08;5.77;;;1.90;;
15968;SDS011;8085;53.472;9.794;2023-03-01T02:36:38;2.57;;;1.40;;
15968;SDS011;8085;53.472;9.794;2023-03-01T02:39:10;3.10;;;1.80;;
15968;SDS011;8085;53.472;9.794;2023-03-01T02:41:44;3.20;;;2.00;;
15968;SDS011;8085;53.472;9.794;2023-03-01T02:44:17;4.40;;;2.00;;
15968;SDS011;8085;53.472;9.794;2023-03-01T02:46:46;3.37;;;2.00;;
15968;SDS011;8085;53.472;9.794;2023-03-01T02:49:18;3.00;;;1.80;;
15968;SDS011;8085;53.472;9.794;2023-03-01T02:51:48;4.43;;;1.80;;
15968;SDS011;8085;53.472;9.794;2023-03-01T02:54:24;2.83;;;1.90;;
15968;SDS011;8085;53.472;9.794;2023-03-01T02:56:54;3.17;;;2.23;;
15968;SDS011;8085;53.472;9.794;2023-03-01T02:59:24;2.67;;;1.80;;
15968;SDS011;8085;53.472;9.794;2023-03-01T03:01:53;3.10;;;2.30;;
15968;SDS011;8085;53.472;9.794;2023-03-01T03:04:20;4.10;;;2.10;;
15968;SDS011;8085;53.472;9.794;2023-03-01T03:06:47;3.07;;;1.70;;
15968;SDS011;8085;53.472;9.794;2023-03-01T03:09:16;4.20;;;2.10;;
15968;SDS011;8085;53.472;9.794;2023-03-01T03:11:45;3.70;;;2.47;;
15968;SDS011;8085;53.472;9.794;2023-03-01T03:14:13;3.43;;;1.73;;
15968;SDS011;8085;53.472;9.794;2023-03-01T03:16:43;2.57;;;1.77;;
15968;SDS011;8085;53.472;9.794;2023-03-01T03:19:11;3.43;;;1.70;;
15968;SDS011;8085;53.472;9.794;2023-03-01T03:21:39;3.17;;;1.97;;
15968;SDS011;8085;53.472;9.794;2023-03-01T03:24:06;4.13;;;1.90;;
15968;SDS011;8085;53.472;9.794;2023-03-01T03:26:34;2.53;;;1.87;;
15968;SDS011;8085;53.472;9.794;2023-03-01T03:29:01;3.40;;;1.77;;
15968;SDS011;8085;53.472;9.794;2023-03-01T03:31:28;3.07;;;1.70;;
15968;SDS011;8085;53.472;9.794;2023-03-01T03:33:56;4.70;;;1.93;;
15968;SDS011;8085;53.472;9.794;2023-03-01T03:36:24;5.43;;;1.90;;
15968;SDS011;8085;53.472;9.794;2023-03-01T03:38:51;4.10;;;2.10;;
15968;SDS011;8085;53.472;9.794;2023-03-01T03:41:18;3.53;;;1.80;;
15968;SDS011;8085;53.472;9.794;2023-03-01T03:43:44;3.33;;;2.10;;
15968;SDS011;8085;53.472;9.794;2023-03-01T03:46:12;2.50;;;1.70;;
15968;SDS011;8085;53.472;9.794;2023-03-01T03:48:39;3.07;;;1.60;;
15968;SDS011;8085;53.472;9.794;2023-03-01T03:51:09;4.43;;;2.10;;
15968;SDS011;8085;53.472;9.794;2023-03-01T03:53:37;3.80;;;1.90;;
15968;SDS011;8085;53.472;9.794;2023-03-01T03:56:04;2.70;;;1.70;;
15968;SDS011;8085;53.472;9.794;2023-03-01T03:58:31;4.67;;;1.83;;
15968;SDS011;8085;53.472;9.794;2023-03-01T04:00:58;3.70;;;2.00;;
15968;SDS011;8085;53.472;9.794;2023-03-01T04:03:27;4.40;;;2.30;;
15968;SDS011;8085;53.472;9.794;2023-03-01T04:05:56;2.27;;;1.53;;
15968;SDS011;8085;53.472;9.794;2023-03-01T04:08:26;3.00;;;1.90;;
15968;SDS011;8085;53.472;9.794;2023-03-01T04:10:56;3.47;;;2.37;;
15968;SDS011;8085;53.472;9.794;2023-03-01T04:13:25;4.87;;;2.17;;
15968;SDS011;8085;53.472;9.794;2023-03-01T04:15:53;3.83;;;2.33;;
15968;SDS011;8085;53.472;9.794;2023-03-01T04:18:22;4.53;;;2.03;;
15968;SDS011;8085;53.472;9.794;2023-03-01T04:20:50;3.20;;;1.93;;
15968;SDS011;8085;53.472;9.794;2023-03-01T04:23:20;4.90;;;2.13;;
15968;SDS011;8085;53.472;9.794;2023-03-01T04:25:49;5.37;;;2.07;;
15968;SDS011;8085;53.472;9.794;2023-03-01T04:28:20;2.90;;;1.93;;
15968;SDS011;8085;53.472;9.794;2023-03-01T04:30:49;3.60;;;2.00;;
15968;SDS011;8085;53.472;9.794;2023-03-01T04:33:16;3.33;;;1.87;;
15968;SDS011;8085;53.472;9.794;2023-03-01T04:35:43;4.53;;;2.67;;
15968;SDS011;8085;53.472;9.794;2023-03-01T04:38:10;4.27;;;2.17;;
15968;SDS011;8085;53.472;9.794;2023-03-01T04:40:37;3.50;;;2.20;;
15968;SDS011;8085;53.472;9.794;2023-03-01T04:43:09;5.43;;;2.90;;
15968;SDS011;8085;53.472;9.794;2023-03-01T04:45:37;3.80;;;2.37;;
15968;SDS011;8085;53.472;9.794;2023-03-01T04:48:04;5.23;;;2.53;;
15968;SDS011;8085;53.472;9.794;2023-03-01T04:50:31;7.00;;;2.80;;
15968;SDS011;8085;53.472;9.794;2023-03-01T04:52:58;4.97;;;2.53;;
15968;SDS011;8085;53.472;9.794;2023-03-01T04:55:25;5.47;;;2.50;;
15968;SDS011;8085;53.472;9.794;2023-03-01T04:57:53;3.73;;;2.37;;
15968;SDS011;8085;53.472;9.794;2023-03-01T05:00:22;4.20;;;2.50;;
15968;SDS011;8085;53.472;9.794;2023-03-01T05:02:50;4.33;;;2.57;;
15968;SDS011;8085;53.472;9.794;2023-03-01T05:05:20;6.63;;;2.70;;
15968;SDS011;8085;53.472;9.794;2023-03-01T05:07:50;4.07;;;2.60;;
15968;SDS011;8085;53.472;9.794;2023-03-01T05:10:18;6.00;;;2.87;;
15968;SDS011;8085;53.472;9.794;2023-03-01T05:12:45;5.63;;;2.33;;
15968;SDS011;8085;53.472;9.794;2023-03-01T05:15:12;4.63;;;2.50;;
15968;SDS011;8085;53.472;9.794;2023-03-01T05:17:41;4.23;;;2.60;;
15968;SDS011;8085;53.472;9.794;2023-03-01T05:20:08;4.97;;;2.80;;
15968;SDS011;8085;53.472;9.794;2023-03-01T05:22:36;6.00;;;3.03;;
15968;SDS011;8085;53.472;9.794;2023-03-01T05:25:03;5.03;;;2.83;;
15968;SDS011;8085;53.472;9.794;2023-03-01T05:27:32;3.87;;;2.53;;
15968;SDS011;8085;53.472;9.794;2023-03-01T05:29:59;5.97;;;2.83;;
15968;SDS011;8085;53.472;9.794;2023-03-01T05:32:38;4.93;;;2.70;;
15968;SDS011;8085;53.472;9.794;2023-03-01T05:35:08;4.20;;;2.40;;
15968;SDS011;8085;53.472;9.794;2023-03-01T05:37:38;4.70;;;2.67;;
15968;SDS011;8085;53.472;9.794;2023-03-01T05:40:07;7.70;;;2.60;;
15968;SDS011;8085;53.472;9.794;2023-03-01T05:42:40;6.30;;;3.00;;
15968;SDS011;8085;53.472;9.794;2023-03-01T05:45:09;4.37;;;2.60;;
15968;SDS011;8085;53.472;9.794;2023-03-01T05:47:37;8.33;;;2.93;;
15968;SDS011;8085;53.472;9.794;2023-03-01T05:50:10;6.50;;;3.33;;
15968;SDS011;8085;53.472;9.794;2023-03-01T05:52:38;5.27;;;3.57;;
15968;SDS011;8085;53.472;9.794;2023-03-01T05:55:05;4.93;;;3.00;;
15968;SDS011;8085;53.472;9.794;2023-03-01T05:57:33;5.23;;;3.07;;
15968;SDS011;8085;53.472;9.794;2023-03-01T06:00:00;6.57;;;4.00;;
15968;SDS011;8085;53.472;9.794;2023-03-01T06:02:27;6.20;;;3.50;;
15968;SDS011;8085;53.472;9.794;2023-03-01T06:04:54;8.03;;;3.67;;
15968;SDS011;8085;53.472;9.794;2023-03-01T06:07:22;5.10;;;3.10;;
15968;SDS011;8085;53.472;9.794;2023-03-01T06:09:49;5.23;;;3.67;;
15968;SDS011;8085;53.472;9.794;2023-03-01T06:12:16;8.60;;;3.63;;
15968;SDS011;8085;53.472;9.794;2023-03-01T06:14:44;8.00;;;3.77;;
15968;SDS011;8085;53.472;9.794;2023-03-01T06:17:11;8.03;;;3.30;;
15968;SDS011;8085;53.472;9.794;2023-03-01T06:19:38;7.63;;;3.80;;
15968;SDS011;8085;53.472;9.794;2023-03-01T06:22:05;6.80;;;3.23;;
15968;SDS011;8085;53.472;9.794;2023-03-01T06:24:33;6.13;;;3.60;;
15968;SDS011;8085;53.472;9.794;2023-03-01T06:27:00;6.50;;;4.10;;
15968;SDS011;8085;53.472;9.794;2023-03-01T06:29:27;8.17;;;3.77;;
15968;SDS011;8085;53.472;9.794;2023-03-01T06:31:54;7.23;;;3.13;;
15968;SDS011;8085;53.472;9.794;2023-03-01T06:34:21;5.23;;;3.43;;
15968;SDS011;8085;53.472;9.794;2023-03-01T06:36:48;7.40;;;3.33;;
15968;SDS011;8085;53.472;9.794;2023-03-01T06:39:14;7.33;;;3.30;;
15968;SDS011;8085;53.472;9.794;2023-03-01T06:41:44;6.60;;;3.53;;
15968;SDS011;8085;53.472;9.794;2023-03-01T06:44:10;12.03;;;3.70;;
15968;SDS011;8085;53.472;9.794;2023-03-01T06:46:38;5.83;;;3.33;;
15968;SDS011;8085;53.472;9.794;2023-03-01T06:49:05;8.67;;;3.70;;
15968;SDS011;8085;53.472;9.794;2023-03-01T06:51:34;11.00;;;3.67;;
15968;SDS011;8085;53.472;9.794;2023-03-01T06:54:01;5.30;;;3.40;;
15968;SDS011;8085;53.472;9.794;2023-03-01T06:56:28;8.50;;;3.77;;
15968;SDS011;8085;53.472;9.794;2023-03-01T06:58:57;6.03;;;3.73;;
15968;SDS011;8085;53.472;9.794;2023-03-01T07:01:23;6.97;;;3.87;;
15968;SDS011;8085;53.472;9.794;2023-03-01T07:03:50;4.90;;;3.23;;
15968;SDS011;8085;53.472;9.794;2023-03-01T07:06:17;6.43;;;4.00;;
15968;SDS011;8085;53.472;9.794;2023-03-01T07:08:44;8.50;;;3.27;;
15968;SDS011;8085;53.472;9.794;2023-03-01T07:11:11;8.33;;;3.33;;
15968;SDS011;8085;53.472;9.794;2023-03-01T07:13:38;5.37;;;3.20;;
15968;SDS011;8085;53.472;9.794;2023-03-01T07:16:07;5.27;;;3.50;;
15968;SDS011;8085;53.472;9.794;2023-03-01T07:18:33;10.40;;;3.50;;
15968;SDS011;8085;53.472;9.794;2023-03-01T07:21:03;4.63;;;3.43;;
15968;SDS011;8085;53.472;9.794;2023-03-01T07:23:30;5.47;;;3.20;;
15968;SDS011;8085;53.472;9.794;2023-03-01T07:25:57;5.70;;;3.50;;
15968;SDS011;8085;53.472;9.794;2023-03-01T07:28:25;10.50;;;4.13;;
15968;SDS011;8085;53.472;9.794;2023-03-01T07:30:52;10.43;;;3.93;;
15968;SDS011;8085;53.472;9.794;2023-03-01T07:33:20;6.83;;;3.63;;
15968;SDS011;8085;53.472;9.794;2023-03-01T07:35:48;8.67;;;3.53;;
15968;SDS011;8085;53.472;9.794;2023-03-01T07:38:14;7.73;;;3.63;;
15968;SDS011;8085;53.472;9.794;2023-03-01T07:40:41;5.30;;;3.03;;
15968;SDS011;8085;53.472;9.794;2023-03-01T07:43:08;8.67;;;3.47;;
15968;SDS011;8085;53.472;9.794;2023-03-01T07:45:35;6.60;;;3.27;;
15968;SDS011;8085;53.472;9.794;2023-03-01T07:48:02;3.80;;;2.90;;
15968;SDS011;8085;53.472;9.794;2023-03-01T07:50:30;7.27;;;3.37;;
15968;SDS011;8085;53.472;9.794;2023-03-01T07:52:57;4.53;;;3.43;;
15968;SDS011;8085;53.472;9.794;2023-03-01T07:55:24;5.63;;;3.10;;
15968;SDS011;8085;53.472;9.794;2023-03-01T07:57:51;7.87;;;3.37;;
15968;SDS011;8085;53.472;9.794;2023-03-01T08:00:18;6.83;;;3.33;;
15968;SDS011;8085;53.472;9.794;2023-03-01T08:02:45;6.13;;;3.10;;
15968;SDS011;8085;53.472;9.794;2023-03-01T08:05:12;4.87;;;3.10;;
15968;SDS011;8085;53.472;9.794;2023-03-01T08:07:40;4.80;;;3.17;;
15968;SDS011;8085;53.472;9.794;2023-03-01T08:10:07;7.67;;;3.30;;
15968;SDS011;8085;53.472;9.794;2023-03-01T08:12:35;6.30;;;3.43;;
15968;SDS011;8085;53.472;9.794;2023-03-01T08:15:02;5.27;;;3.37;;
15968;SDS011;8085;53.472;9.794;2023-03-01T08:17:30;5.67;;;3.30;;
15968;SDS011;8085;53.472;9.794;2023-03-01T08:19:56;5.47;;;3.20;;
15968;SDS011;8085;53.472;9.794;2023-03-01T08:22:23;7.87;;;3.00;;
15968;SDS011;8085;53.472;9.794;2023-03-01T08:24:51;7.60;;;3.10;;
15968;SDS011;8085;53.472;9.794;2023-03-01T08:27:20;4.50;;;3.10;;
15968;SDS011;8085;53.472;9.794;2023-03-01T08:29:47;6.07;;;3.30;;
15968;SDS011;8085;53.472;9.794;2023-03-01T08:32:14;6.80;;;3.50;;
15968;SDS011;8085;53.472;9.794;2023-03-01T08:34:41;8.17;;;3.87;;
15968;SDS011;8085;53.472;9.794;2023-03-01T08:37:08;7.13;;;3.83;;
15968;SDS011;8085;53.472;9.794;2023-03-01T08:39:35;5.47;;;3.40;;
15968;SDS011;8085;53.472;9.794;2023-03-01T08:42:03;5.73;;;3.83;;
15968;SDS011;8085;53.472;9.794;2023-03-01T08:44:30;5.43;;;3.70;;
15968;SDS011;8085;53.472;9.794;2023-03-01T08:46:57;8.10;;;3.93;;
15968;SDS011;8085;53.472;9.794;2023-03-01T08:49:25;13.20;;;5.10;;
15968;SDS011;8085;53.472;9.794;2023-03-01T08:51:51;9.33;;;3.97;;
15968;SDS011;8085;53.472;9.794;2023-03-01T08:54:20;7.27;;;4.10;;
15968;SDS011;8085;53.472;9.794;2023-03-01T08:56:47;8.53;;;4.47;;
15968;SDS011;8085;53.472;9.794;2023-03-01T08:59:16;10.50;;;4.63;;
15968;SDS011;8085;53.472;9.794;2023-03-01T09:01:44;7.10;;;4.20;;
15968;SDS011;8085;53.472;9.794;2023-03-01T09:04:11;11.00;;;5.10;;
15968;SDS011;8085;53.472;9.794;2023-03-01T09:06:38;10.27;;;5.80;;
15968;SDS011;8085;53.472;9.794;2023-03-01T09:09:05;11.47;;;6.60;;
15968;SDS011;8085;53.472;9.794;2023-03-01T09:11:34;10.23;;;6.83;;
15968;SDS011;8085;53.472;9.794;2023-03-01T09:14:04;9.37;;;7.00;;
15968;SDS011;8085;53.472;9.794;2023-03-01T09:16:34;11.83;;;7.30;;
15968;SDS011;8085;53.472;9.794;2023-03-01T09:19:02;12.93;;;7.67;;
15968;SDS011;8085;53.472;9.794;2023-03-01T09:21:29;10.03;;;7.60;;
15968;SDS011;8085;53.472;9.794;2023-03-01T09:23:56;15.10;;;8.00;;
15968;SDS011;8085;53.472;9.794;2023-03-01T09:26:24;12.23;;;7.90;;
15968;SDS011;8085;53.472;9.794;2023-03-01T09:28:52;13.70;;;8.10;;
15968;SDS011;8085;53.472;9.794;2023-03-01T09:31:20;14.20;;;8.20;;
15968;SDS011;8085;53.472;9.794;2023-03-01T09:33:51;12.37;;;7.93;;
15968;SDS011;8085;53.472;9.794;2023-03-01T09:36:20;15.90;;;8.00;;
15968;SDS011;8085;53.472;9.794;2023-03-01T09:38:48;11.40;;;7.97;;
15968;SDS011;8085;53.472;9.794;2023-03-01T09:41:24;11.63;;;7.70;;
15968;SDS011;8085;53.472;9.794;2023-03-01T09:44:05;11.43;;;8.00;;
15968;SDS011;8085;53.472;9.794;2023-03-01T09:46:40;11.97;;;7.60;;
15968;SDS011;8085;53.472;9.794;2023-03-01T09:49:12;13.73;;;7.70;;
15968;SDS011;8085;53.472;9.794;2023-03-01T09:51:43;15.10;;;7.93;;
15968;SDS011;8085;53.472;9.794;2023-03-01T09:54:20;12.93;;;8.60;;
15968;SDS011;8085;53.472;9.794;2023-03-01T09:56:49;16.40;;;8.67;;
15968;SDS011;8085;53.472;9.794;2023-03-01T09:59:25;16.83;;;9.67;;
15968;SDS011;8085;53.472;9.794;2023-03-01T10:01:58;14.50;;;9.43;;
15968;SDS011;8085;53.472;9.794;2023-03-01T10:04:35;13.47;;;9.20;;
15968;SDS011;8085;53.472;9.794;2023-03-01T10:07:17;12.00;;;8.67;;
15968;SDS011;8085;53.472;9.794;2023-03-01T10:09:53;19.27;;;9.40;;
15968;SDS011;8085;53.472;9.794;2023-03-01T10:12:22;14.63;;;8.97;;
15968;SDS011;8085;53.472;9.794;2023-03-01T10:14:54;15.27;;;9.53;;
15968;SDS011;8085;53.472;9.794;2023-03-01T10:17:26;13.80;;;9.57;;
15968;SDS011;8085;53.472;9.794;2023-03-01T10:20:01;15.83;;;10.17;;
15968;SDS011;8085;53.472;9.794;2023-03-01T10:22:41;15.47;;;10.50;;
15968;SDS011;8085;53.472;9.794;2023-03-01T10:25:13;17.90;;;11.43;;
15968;SDS011;8085;53.472;9.794;2023-03-01T10:27:42;16.53;;;11.37;;
15968;SDS011;8085;53.472;9.794;2023-03-01T10:30:17;13.80;;;10.23;;
15968;SDS011;8085;53.472;9.794;2023-03-01T10:32:47;15.13;;;10.50;;
15968;SDS011;8085;53.472;9.794;2023-03-01T10:35:19;14.00;;;9.63;;
15968;SDS011;8085;53.472;9.794;2023-03-01T10:37:57;13.70;;;9.00;;
15968;SDS011;8085;53.472;9.794;2023-03-01T10:40:25;12.87;;;9.10;;
15968;SDS011;8085;53.472;9.794;2023-03-01T10:42:51;17.40;;;8.93;;
15968;SDS011;8085;53.472;9.794;2023-03-01T10:45:27;13.53;;;9.03;;
15968;SDS011;8085;53.472;9.794;2023-03-01T10:48:02;15.17;;;9.67;;
15968;SDS011;8085;53.472;9.794;2023-03-01T10:50:32;16.70;;;8.90;;
15968;SDS011;8085;53.472;9.794;2023-03-01T10:52:59;12.60;;;8.27;;
15968;SDS011;8085;53.472;9.794;2023-03-01T10:55:30;14.90;;;8.63;;
15968;SDS011;8085;53.472;9.794;2023-03-01T10:58:07;13.93;;;8.43;;
15968;SDS011;8085;53.472;9.794;2023-03-01T11:00:46;10.40;;;6.90;;
15968;SDS011;8085;53.472;9.794;2023-03-01T11:03:15;11.23;;;6.97;;
15968;SDS011;8085;53.472;9.794;2023-03-01T11:05:54;12.17;;;6.87;;
15968;SDS011;8085;53.472;9.794;2023-03-01T11:08:36;8.90;;;6.60;;
15968;SDS011;8085;53.472;9.794;2023-03-01T11:11:21;9.77;;;6.67;;
15968;SDS011;8085;53.472;9.794;2023-03-01T11:13:53;9.40;;;6.03;;
15968;SDS011;8085;53.472;9.794;2023-03-01T11:16:26;9.83;;;6.87;;
15968;SDS011;8085;53.472;9.794;2023-03-01T11:18:56;9.77;;;6.70;;
15968;SDS011;8085;53.472;9.794;2023-03-01T11:21:26;10.53;;;6.93;;
15968;SDS011;8085;53.472;9.794;2023-03-01T11:23:57;8.57;;;6.20;;
15968;SDS011;8085;53.472;9.794;2023-03-01T11:26:27;9.80;;;7.07;;
15968;SDS011;8085;53.472;9.794;2023-03-01T11:28:58;10.93;;;6.80;;
15968;SDS011;8085;53.472;9.794;2023-03-01T11:31:30;11.73;;;7.63;;
15968;SDS011;8085;53.472;9.794;2023-03-01T11:33:59;10.23;;;7.10;;
15968;SDS011;8085;53.472;9.794;2023-03-01T11:36:34;14.43;;;8.37;;
15968;SDS011;8085;53.472;9.794;2023-03-01T11:39:10;11.40;;;7.43;;
15968;SDS011;8085;53.472;9.794;2023-03-01T11:41:45;10.30;;;6.80;;
15968;SDS011;8085;53.472;9.794;2023-03-01T11:44:18;12.60;;;6.90;;
15968;SDS011;8085;53.472;9.794;2023-03-01T11:46:55;13.33;;;7.60;;
15968;SDS011;8085;53.472;9.794;2023-03-01T11:49:40;11.03;;;7.47;;
15968;SDS011;8085;53.472;9.794;2023-03-01T11:52:29;13.40;;;7.67;;
15968;SDS011;8085;53.472;9.794;2023-03-01T12:01:07;12.50;;;7.03;;
15968;SDS011;8085;53.472;9.794;2023-03-01T12:03:52;13.13;;;7.30;;
15968;SDS011;8085;53.472;9.794;2023-03-01T12:06:46;12.30;;;7.73;;
15968;SDS011;8085;53.472;9.794;2023-03-01T12:12:25;12.37;;;7.50;;
15968;SDS011;8085;53.472;9.794;2023-03-01T12:18:04;11.63;;;6.93;;
15968;SDS011;8085;53.472;9.794;2023-03-01T12:21:02;10.97;;;7.37;;
15968;SDS011;8085;53.472;9.794;2023-03-01T12:26:45;14.67;;;7.80;;
15968;SDS011;8085;53.472;9.794;2023-03-01T12:29:25;10.97;;;7.23;;
15968;SDS011;8085;53.472;9.794;2023-03-01T12:32:04;16.23;;;8.47;;
15968;SDS011;8085;53.472;9.794;2023-03-01T12:34:44;15.30;;;7.53;;
15968;SDS011;8085;53.472;9.794;2023-03-01T12:37:33;12.13;;;7.73;;
15968;SDS011;8085;53.472;9.794;2023-03-01T12:40:31;12.50;;;8.13;;
15968;SDS011;8085;53.472;9.794;2023-03-01T12:43:10;12.80;;;8.30;;
15968;SDS011;8085;53.472;9.794;2023-03-01T12:45:48;12.40;;;8.07;;
15968;SDS011;8085;53.472;9.794;2023-03-01T12:48:34;13.10;;;8.03;;
15968;SDS011;8085;53.472;9.794;2023-03-01T12:51:10;14.00;;;8.10;;
15968;SDS011;8085;53.472;9.794;2023-03-01T12:53:40;13.03;;;7.87;;
15968;SDS011;8085;53.472;9.794;2023-03-01T12:56:11;12.20;;;7.40;;
15968;SDS011;8085;53.472;9.794;2023-03-01T12:58:46;13.70;;;7.47;;
15968;SDS011;8085;53.472;9.794;2023-03-01T13:01:22;13.10;;;8.07;;
15968;SDS011;8085;53.472;9.794;2023-03-01T13:03:58;14.93;;;8.17;;
15968;SDS011;8085;53.472;9.794;2023-03-01T13:06:39;13.53;;;7.73;;
15968;SDS011;8085;53.472;9.794;2023-03-01T13:09:11;13.10;;;8.00;;
15968;SDS011;8085;53.472;9.794;2023-03-01T13:11:43;16.33;;;8.00;;
15968;SDS011;8085;53.472;9.794;2023-03-01T13:19:59;13.90;;;8.37;;
15968;SDS011;8085;53.472;9.794;2023-03-01T13:22:27;13.37;;;8.50;;
15968;SDS011;8085;53.472;9.794;2023-03-01T13:25:11;16.30;;;9.80;;
15968;SDS011;8085;53.472;9.794;2023-03-01T13:27:43;16.47;;;9.90;;
15968;SDS011;8085;53.472;9.794;2023-03-01T13:36:06;12.67;;;8.90;;
15968;SDS011;8085;53.472;9.794;2023-03-01T13:38:37;13.93;;;9.07;;
15968;SDS011;8085;53.472;9.794;2023-03-01T13:41:10;14.90;;;9.40;;
15968;SDS011;8085;53.472;9.794;2023-03-01T13:43:38;15.37;;;9.70;;
15968;SDS011;8085;53.472;9.794;2023-03-01T13:46:10;19.17;;;10.43;;
15968;SDS011;8085;53.472;9.794;2023-03-01T13:48:42;19.03;;;11.37;;
15968;SDS011;8085;53.472;9.794;2023-03-01T13:51:11;20.73;;;11.63;;
15968;SDS011;8085;53.472;9.794;2023-03-01T13:53:40;19.57;;;11.80;;
15968;SDS011;8085;53.472;9.794;2023-03-01T13:56:11;21.73;;;12.40;;
15968;SDS011;8085;53.472;9.794;2023-03-01T13:58:45;22.60;;;12.80;;
15968;SDS011;8085;53.472;9.794;2023-03-01T14:01:25;17.80;;;11.77;;
15968;SDS011;8085;53.472;9.794;2023-03-01T14:03:54;19.33;;;10.47;;
15968;SDS011;8085;53.472;9.794;2023-03-01T14:06:22;20.90;;;11.67;;
15968;SDS011;8085;53.472;9.794;2023-03-01T14:08:50;21.80;;;13.40;;
15968;SDS011;8085;53.472;9.794;2023-03-01T14:11:31;27.63;;;14.70;;
15968;SDS011;8085;53.472;9.794;2023-03-01T14:14:17;23.17;;;13.83;;
15968;SDS011;8085;53.472;9.794;2023-03-01T14:17:00;25.63;;;14.70;;
15968;SDS011;8085;53.472;9.794;2023-03-01T14:19:47;26.70;;;14.30;;
15968;SDS011;8085;53.472;9.794;2023-03-01T14:22:16;24.07;;;14.93;;
15968;SDS011;8085;53.472;9.794;2023-03-01T14:24:49;27.97;;;15.77;;
15968;SDS011;8085;53.472;9.794;2023-03-01T14:27:17;27.60;;;15.93;;
15968;SDS011;8085;53.472;9.794;2023-03-01T14:29:53;34.90;;;16.73;;
15968;SDS011;8085;53.472;9.794;2023-03-01T14:32:24;32.87;;;17.83;;
15968;SDS011;8085;53.472;9.794;2023-03-01T14:34:52;31.47;;;17.30;;
15968;SDS011;8085;53.472;9.794;2023-03-01T14:37:21;31.13;;;17.53;;
15968;SDS011;8085;53.472;9.794;2023-03-01T14:39:50;31.53;;;17.57;;
15968;SDS011;8085;53.472;9.794;2023-03-01T14:42:18;28.60;;;16.13;;
15968;SDS011;8085;53.472;9.794;2023-03-01T14:44:47;27.63;;;16.40;;
15968;SDS011;8085;53.472;9.794;2023-03-01T14:47:23;28.93;;;17.37;;
15968;SDS011;8085;53.472;9.794;2023-03-01T14:49:56;29.33;;;16.87;;
15968;SDS011;8085;53.472;9.794;2023-03-01T14:52:26;30.70;;;16.53;;
15968;SDS011;8085;53.472;9.794;2023-03-01T14:55:01;29.27;;;16.17;;
15968;SDS011;8085;53.472;9.794;2023-03-01T14:57:30;26.97;;;15.73;;
15968;SDS011;8085;53.472;9.794;2023-03-01T14:59:58;24.37;;;15.93;;
15968;SDS011;8085;53.472;9.794;2023-03-01T15:02:31;25.57;;;15.17;;
15968;SDS011;8085;53.472;9.794;2023-03-01T15:05:01;25.37;;;15.20;;
15968;SDS011;8085;53.472;9.794;2023-03-01T15:07:30;29.47;;;15.90;;
15968;SDS011;8085;53.472;9.794;2023-03-01T15:09:59;25.83;;;15.03;;
15968;SDS011;8085;53.472;9.794;2023-03-01T15:12:35;26.57;;;15.07;;
15968;SDS011;8085;53.472;9.794;2023-03-01T15:17:50;22.17;;;13.37;;
15968;SDS011;8085;53.472;9.794;2023-03-01T15:20:20;27.23;;;14.40;;
15968;SDS011;8085;53.472;9.794;2023-03-01T15:22:50;27.47;;;14.57;;
15968;SDS011;8085;53.472;9.794;2023-03-01T15:25:18;23.83;;;13.23;;
15968;SDS011;8085;53.472;9.794;2023-03-01T15:27:46;24.23;;;14.03;;
15968;SDS011;8085;53.472;9.794;2023-03-01T15:30:16;21.37;;;13.23;;
15968;SDS011;8085;53.472;9.794;2023-03-01T15:32:46;22.80;;;11.77;;
15968;SDS011;8085;53.472;9.794;2023-03-01T15:40:52;22.20;;;12.53;;
15968;SDS011;8085;53.472;9.794;2023-03-01T15:43:38;19.10;;;11.80;;
15968;SDS011;8085;53.472;9.794;2023-03-01T15:46:13;21.57;;;12.20;;